Terminal Aerodrome Forecast
Issued by NWS Wakefield, VA

Home | Current Version | Previous Version | Text Only | Print | Product List | Glossary On
Versions: 1 2 3 4 5 6 7 8 9 10 11 12 13 14 15 16 17 18 19 20 21
000
FTUS41 KAKQ 221100
TAFSBY
TAF
KSBY 221134Z 2212/2312 00000KT 5SM BR SCT004 SCT060
      TEMPO 2212/2213 3SM BR BKN001
     FM221400 12003KT 6SM BR SCT060
     FM221700 14007KT P6SM SCT025 BKN100
     FM222300 17006KT P6SM OVC250
      AMD NOT SKED=

USA.gov is the U.S. government's official web portal to all federal, state and local government web resources and services.